createdAt,value
2022-07-31T00:00:27.123Z,20.85
2022-07-31T00:02:54.311Z,20.80
2022-07-31T00:05:21.602Z,20.76
2022-07-31T00:07:49.014Z,20.79
2022-07-31T00:10:16.159Z,20.76
2022-07-31T00:12:43.488Z,20.49
2022-07-31T00:15:12.451Z,20.47
2022-07-31T00:17:42.042Z,20.55
2022-07-31T00:20:14.696Z,20.73
2022-07-31T00:22:43.531Z,20.71
2022-07-31T00:25:12.850Z,20.62
2022-07-31T00:27:41.411Z,20.46
2022-07-31T00:30:09.463Z,20.38
2022-07-31T00:32:36.357Z,20.46
2022-07-31T00:35:04.023Z,20.54
2022-07-31T00:37:31.024Z,20.45
2022-07-31T00:39:58.477Z,20.29
2022-07-31T00:42:26.421Z,20.25
2022-07-31T00:44:53.401Z,20.18
2022-07-31T00:47:25.551Z,20.15
2022-07-31T00:49:53.146Z,20.19
2022-07-31T00:52:20.950Z,20.01
2022-07-31T00:54:47.842Z,19.98
2022-07-31T00:57:15.368Z,20.03
2022-07-31T00:59:43.687Z,19.96
2022-07-31T01:02:11.111Z,20.05
2022-07-31T01:04:38.036Z,20.08
2022-07-31T01:07:09.245Z,20.08
2022-07-31T01:09:36.525Z,20.10
2022-07-31T01:12:09.818Z,19.96
2022-07-31T01:14:45.954Z,19.82
2022-07-31T01:17:15.367Z,19.66
2022-07-31T01:19:48.570Z,19.69
2022-07-31T01:22:42.683Z,19.75
2022-07-31T01:25:47.455Z,19.78
2022-07-31T01:28:59.045Z,19.73
2022-07-31T01:31:52.422Z,19.65
2022-07-31T01:34:42.539Z,19.55
2022-07-31T01:37:27.274Z,19.43
2022-07-31T01:40:08.486Z,19.36
2022-07-31T01:42:39.478Z,19.26
2022-07-31T01:45:10.780Z,19.26
2022-07-31T01:47:40.085Z,19.25
2022-07-31T01:50:09.176Z,19.25
2022-07-31T01:53:01.000Z,19.29
2022-07-31T01:55:30.845Z,19.23
2022-07-31T01:58:20.978Z,19.16
2022-07-31T02:00:50.978Z,19.17
2022-07-31T02:03:19.616Z,19.14
2022-07-31T02:06:07.145Z,19.00
2022-07-31T02:08:35.883Z,18.95
2022-07-31T02:11:03.688Z,18.94
2022-07-31T02:13:32.373Z,18.79
2022-07-31T02:16:01.051Z,18.73
2022-07-31T02:18:34.765Z,18.79
2022-07-31T02:21:02.091Z,18.74
2022-07-31T02:23:28.977Z,18.65
2022-07-31T02:25:56.843Z,18.69
2022-07-31T02:28:26.136Z,18.76
2022-07-31T02:30:54.303Z,18.80
2022-07-31T02:33:25.644Z,18.82
2022-07-31T02:35:57.483Z,18.83
2022-07-31T02:38:28.141Z,18.94
2022-07-31T02:41:01.998Z,18.90
2022-07-31T02:43:31.732Z,18.91
2022-07-31T02:45:59.955Z,18.83
2022-07-31T02:48:28.127Z,18.75
2022-07-31T02:50:56.154Z,18.80
2022-07-31T02:53:23.428Z,18.90
2022-07-31T02:55:52.185Z,18.98
2022-07-31T02:58:19.826Z,18.96
2022-07-31T03:00:46.984Z,18.79
2022-07-31T03:03:13.958Z,18.65
2022-07-31T03:05:40.839Z,18.61
2022-07-31T03:08:07.684Z,18.58
2022-07-31T03:10:34.694Z,18.52
2022-07-31T03:13:05.306Z,18.43
2022-07-31T03:15:34.418Z,18.31
2022-07-31T03:18:01.791Z,18.32
2022-07-31T03:20:39.750Z,18.30
2022-07-31T03:23:07.325Z,18.25
2022-07-31T03:25:34.374Z,18.33
2022-07-31T03:28:01.272Z,18.38
2022-07-31T03:30:28.403Z,18.36
2022-07-31T03:32:57.195Z,18.27
2022-07-31T03:35:25.258Z,18.20
2022-07-31T03:37:52.498Z,18.16
2022-07-31T03:40:19.813Z,18.20
2022-07-31T03:42:49.800Z,18.34
2022-07-31T03:45:17.834Z,18.36
2022-07-31T03:47:45.154Z,18.29
2022-07-31T03:50:14.003Z,18.31
2022-07-31T03:52:41.109Z,18.36
2022-07-31T03:55:08.965Z,18.29
2022-07-31T03:57:38.420Z,18.20
2022-07-31T04:00:09.742Z,18.25
2022-07-31T04:02:44.945Z,18.30
2022-07-31T04:05:12.056Z,18.21
2022-07-31T04:07:38.956Z,18.14
2022-07-31T04:10:06.767Z,18.20
2022-07-31T04:12:33.787Z,18.20
2022-07-31T04:15:00.694Z,18.25
2022-07-31T04:17:27.552Z,18.24
2022-07-31T04:19:58.048Z,18.29
2022-07-31T04:22:25.705Z,18.27
2022-07-31T04:24:52.659Z,18.35
2022-07-31T04:27:19.562Z,18.30
2022-07-31T04:29:46.942Z,18.20
2022-07-31T04:32:13.882Z,18.25
2022-07-31T04:34:42.188Z,18.32
2022-07-31T04:37:09.061Z,18.43
2022-07-31T04:39:36.926Z,18.38
2022-07-31T04:42:05.017Z,18.27
2022-07-31T04:44:34.092Z,18.23
2022-07-31T04:47:04.201Z,18.35
2022-07-31T04:49:33.191Z,18.35
2022-07-31T04:52:01.679Z,18.36
2022-07-31T04:54:29.837Z,18.40
2022-07-31T04:56:56.879Z,18.45
2022-07-31T04:59:24.436Z,18.54
2022-07-31T05:02:11.325Z,18.56
2022-07-31T05:04:39.355Z,18.41
2022-07-31T05:07:06.223Z,18.35
2022-07-31T05:09:36.306Z,18.40
2022-07-31T05:12:04.785Z,18.49
2022-07-31T05:14:31.907Z,18.61
2022-07-31T05:16:58.861Z,18.62
2022-07-31T05:19:29.750Z,18.60
2022-07-31T05:22:02.434Z,18.74
2022-07-31T05:24:33.313Z,18.74
2022-07-31T05:27:03.076Z,18.75
2022-07-31T05:29:31.086Z,18.80
2022-07-31T05:31:59.697Z,18.78
2022-07-31T05:34:31.246Z,18.87
2022-07-31T05:37:01.656Z,18.99
2022-07-31T05:39:30.250Z,19.00
2022-07-31T05:41:57.528Z,19.06
2022-07-31T05:44:24.627Z,18.93
2022-07-31T05:49:19.902Z,18.93
2022-07-31T05:51:47.247Z,19.00
2022-07-31T05:54:14.489Z,19.11
2022-07-31T05:56:41.591Z,19.30
2022-07-31T05:59:09.630Z,19.29
2022-07-31T06:01:37.305Z,19.26
2022-07-31T06:04:04.678Z,19.22
2022-07-31T06:06:31.675Z,19.30
2022-07-31T06:09:03.797Z,19.46
2022-07-31T06:11:31.899Z,19.59
2022-07-31T06:13:58.953Z,19.70
2022-07-31T06:16:25.850Z,19.82
2022-07-31T06:18:52.789Z,19.90
2022-07-31T06:23:45.577Z,20.07
2022-07-31T06:26:12.704Z,20.13
2022-07-31T06:28:47.977Z,20.15
2022-07-31T06:31:21.976Z,20.25
2022-07-31T06:33:50.135Z,20.33
2022-07-31T06:36:19.749Z,20.33
2022-07-31T06:38:47.269Z,20.33
2022-07-31T06:41:32.716Z,20.43
2022-07-31T06:43:59.667Z,20.52
2022-07-31T06:46:26.577Z,20.62
2022-07-31T06:48:53.475Z,20.60
2022-07-31T06:51:30.839Z,20.68
2022-07-31T06:54:00.267Z,20.71
2022-07-31T06:56:28.077Z,20.83
2022-07-31T06:58:55.274Z,20.77
2022-07-31T07:01:22.294Z,20.81
2022-07-31T07:03:49.307Z,20.87
2022-07-31T07:06:16.526Z,20.94
2022-07-31T07:08:43.461Z,21.05
2022-07-31T07:11:12.425Z,21.18
2022-07-31T07:13:45.299Z,21.32
2022-07-31T07:16:14.732Z,21.42
2022-07-31T07:18:43.119Z,21.54
2022-07-31T07:21:10.745Z,21.65
2022-07-31T07:23:37.855Z,21.74
2022-07-31T07:26:05.811Z,21.85
2022-07-31T07:28:34.067Z,22.03
2022-07-31T07:31:01.462Z,22.14
2022-07-31T07:33:40.952Z,22.24
2022-07-31T07:36:23.002Z,22.33
2022-07-31T07:38:55.628Z,22.26
2022-07-31T07:41:25.123Z,22.27
2022-07-31T07:43:53.018Z,22.42
2022-07-31T07:46:22.739Z,22.68
2022-07-31T07:48:50.919Z,22.82
2022-07-31T07:51:19.441Z,23.01
2022-07-31T07:53:46.379Z,23.15
2022-07-31T07:56:13.182Z,23.39
2022-07-31T07:58:40.819Z,23.65
2022-07-31T08:01:08.071Z,23.81
2022-07-31T08:03:50.247Z,23.96
2022-07-31T08:06:21.452Z,24.22
2022-07-31T08:08:48.399Z,24.36
2022-07-31T08:11:17.052Z,24.64
2022-07-31T08:13:50.113Z,24.98
2022-07-31T08:16:19.035Z,25.25
2022-07-31T08:18:46.135Z,25.45
2022-07-31T08:21:13.360Z,25.59
2022-07-31T08:23:40.535Z,25.79
2022-07-31T08:26:10.021Z,26.02
2022-07-31T08:28:38.343Z,26.30
2022-07-31T08:31:05.773Z,26.34
2022-07-31T08:33:35.603Z,26.44
2022-07-31T08:36:04.558Z,26.67
2022-07-31T08:38:32.182Z,26.97
2022-07-31T08:40:59.687Z,27.29
2022-07-31T08:44:00.503Z,27.44
2022-07-31T08:46:16.578Z,27.69
2022-07-31T08:48:45.920Z,27.91
2022-07-31T08:51:15.593Z,27.98
2022-07-31T08:53:44.679Z,28.17
2022-07-31T08:56:12.819Z,28.48
2022-07-31T08:58:40.227Z,28.68
2022-07-31T09:01:12.291Z,28.65
2022-07-31T09:03:39.337Z,28.36
2022-07-31T09:06:06.976Z,28.13
2022-07-31T09:08:36.088Z,28.01
2022-07-31T09:11:05.985Z,28.22
2022-07-31T09:13:34.952Z,28.65
2022-07-31T09:16:03.490Z,29.11
2022-07-31T09:18:31.646Z,28.87
2022-07-31T09:21:02.236Z,28.52
2022-07-31T09:23:32.200Z,28.23
2022-07-31T09:26:05.793Z,28.44
2022-07-31T09:28:43.926Z,28.99
2022-07-31T09:31:13.908Z,29.56
2022-07-31T09:33:45.948Z,29.98
2022-07-31T09:36:14.997Z,30.24
2022-07-31T09:38:44.381Z,30.49
2022-07-31T09:41:55.469Z,30.63
2022-07-31T09:44:09.885Z,30.30
2022-07-31T09:46:46.884Z,30.24
2022-07-31T09:49:14.651Z,30.47
2022-07-31T09:51:49.478Z,30.89
2022-07-31T09:54:31.338Z,31.11
2022-07-31T09:57:09.834Z,30.52
2022-07-31T09:59:36.666Z,30.82
2022-07-31T10:02:08.810Z,31.20
2022-07-31T10:04:41.407Z,31.37
2022-07-31T10:07:08.812Z,31.47
2022-07-31T10:09:57.876Z,31.75
2022-07-31T10:12:30.809Z,31.83
2022-07-31T10:15:09.298Z,32.03
2022-07-31T10:17:41.041Z,31.92
2022-07-31T10:20:13.517Z,32.01
2022-07-31T10:22:46.468Z,31.91
2022-07-31T10:25:29.535Z,31.48
2022-07-31T10:27:57.368Z,30.72
2022-07-31T10:30:28.330Z,30.28
2022-07-31T10:32:58.652Z,30.07
2022-07-31T10:36:10.765Z,30.11
2022-07-31T10:38:54.838Z,30.27
2022-07-31T10:41:37.861Z,30.12
2022-07-31T10:44:22.568Z,29.89
2022-07-31T10:46:50.409Z,30.11
2022-07-31T10:49:17.462Z,30.27
2022-07-31T10:51:51.813Z,30.45
2022-07-31T10:54:18.721Z,31.04
2022-07-31T10:56:47.581Z,31.70
2022-07-31T10:59:14.694Z,32.07
2022-07-31T11:01:55.018Z,32.36
2022-07-31T11:04:32.287Z,32.77
2022-07-31T11:07:00.092Z,33.13
2022-07-31T11:09:29.591Z,33.08
2022-07-31T11:11:56.647Z,32.49
2022-07-31T11:14:40.690Z,31.82
2022-07-31T11:17:07.953Z,32.04
2022-07-31T11:19:43.891Z,32.61
2022-07-31T11:22:31.968Z,32.91
2022-07-31T11:25:00.743Z,32.78
2022-07-31T11:27:34.444Z,31.82
2022-07-31T11:30:13.498Z,31.70
2022-07-31T11:32:47.665Z,32.62
2022-07-31T11:35:29.749Z,33.37
2022-07-31T11:37:59.100Z,34.23
2022-07-31T11:40:28.225Z,34.91
2022-07-31T11:43:24.748Z,35.19
2022-07-31T11:45:55.087Z,34.93
2022-07-31T11:48:27.798Z,35.26
2022-07-31T11:50:54.975Z,35.77
2022-07-31T11:53:21.931Z,35.68
2022-07-31T11:55:54.033Z,35.82
2022-07-31T11:58:22.689Z,35.88
2022-07-31T12:01:02.753Z,36.14
2022-07-31T12:03:37.032Z,35.36
2022-07-31T12:06:06.872Z,33.82
2022-07-31T12:08:37.746Z,34.06
2022-07-31T12:11:08.881Z,35.53
2022-07-31T12:13:38.706Z,36.32
2022-07-31T12:16:11.309Z,35.21
2022-07-31T12:19:02.161Z,35.81
2022-07-31T12:21:38.664Z,36.44
2022-07-31T12:24:15.120Z,37.10
2022-07-31T12:26:59.276Z,37.42
2022-07-31T12:29:39.190Z,37.43
2022-07-31T12:32:07.966Z,37.56
2022-07-31T12:34:42.447Z,37.54
2022-07-31T12:37:22.410Z,37.70
2022-07-31T12:39:59.725Z,37.12
2022-07-31T12:42:40.709Z,37.75
2022-07-31T12:45:18.474Z,38.11
2022-07-31T12:47:51.350Z,38.47
2022-07-31T12:50:28.141Z,38.58
2022-07-31T12:53:00.502Z,37.36
2022-07-31T12:55:29.507Z,37.64
2022-07-31T12:57:57.224Z,38.12
2022-07-31T13:00:26.917Z,38.69
2022-07-31T13:02:58.325Z,38.75
2022-07-31T13:05:26.181Z,38.64
2022-07-31T13:07:53.907Z,38.74
2022-07-31T13:10:25.041Z,39.02
2022-07-31T13:12:58.690Z,38.74
2022-07-31T13:15:32.154Z,38.86
2022-07-31T13:18:05.089Z,38.88
2022-07-31T13:20:32.711Z,38.83
2022-07-31T13:22:59.954Z,39.27
2022-07-31T13:25:30.311Z,39.34
2022-07-31T13:27:59.189Z,39.28
2022-07-31T13:30:27.798Z,38.92
2022-07-31T13:32:54.841Z,39.05
2022-07-31T13:35:28.283Z,39.47
2022-07-31T13:37:56.329Z,39.27
2022-07-31T13:40:42.278Z,39.10
2022-07-31T13:43:09.759Z,39.17
2022-07-31T13:45:37.187Z,39.40
2022-07-31T13:48:09.559Z,39.18
2022-07-31T13:50:39.605Z,39.29
2022-07-31T13:53:07.044Z,38.37
2022-07-31T13:55:34.378Z,38.73
2022-07-31T13:58:01.712Z,38.88
2022-07-31T14:00:30.511Z,37.64
2022-07-31T14:02:58.384Z,36.93
2022-07-31T14:05:28.231Z,36.96
2022-07-31T14:07:56.216Z,37.40
2022-07-31T14:10:48.517Z,37.66
2022-07-31T14:13:19.036Z,37.21
2022-07-31T14:15:47.204Z,36.20
2022-07-31T14:20:07.183Z,36.70
2022-07-31T14:22:34.091Z,37.60
2022-07-31T14:25:01.190Z,36.75
2022-07-31T14:27:28.172Z,37.22
2022-07-31T14:29:55.198Z,36.10
2022-07-31T14:32:22.566Z,35.57
2022-07-31T14:34:50.559Z,35.39
2022-07-31T14:37:17.578Z,35.22
2022-07-31T14:39:44.736Z,35.11
2022-07-31T14:42:12.423Z,35.01
2022-07-31T14:44:42.356Z,35.77
2022-07-31T14:47:11.445Z,36.58
2022-07-31T14:50:07.810Z,36.66
2022-07-31T14:52:28.861Z,35.68
2022-07-31T14:54:58.635Z,35.78
2022-07-31T14:57:26.449Z,36.27
2022-07-31T14:59:53.425Z,35.54
2022-07-31T15:02:22.719Z,34.84
2022-07-31T15:04:52.026Z,34.16
2022-07-31T15:07:43.824Z,33.81
2022-07-31T15:10:11.113Z,34.69
2022-07-31T15:12:38.296Z,35.44
2022-07-31T15:15:07.539Z,34.69
2022-07-31T15:17:37.264Z,33.81
2022-07-31T15:20:05.556Z,33.14
2022-07-31T15:22:32.588Z,32.75
2022-07-31T15:24:59.644Z,32.60
2022-07-31T15:27:27.035Z,32.48
2022-07-31T15:30:04.405Z,32.61
2022-07-31T15:32:39.010Z,33.76
2022-07-31T15:35:11.317Z,34.57
2022-07-31T15:37:41.216Z,34.96
2022-07-31T15:40:15.123Z,34.65
2022-07-31T15:42:44.998Z,33.82
2022-07-31T15:45:18.368Z,33.25
2022-07-31T15:47:47.239Z,32.84
2022-07-31T15:50:17.336Z,32.64
2022-07-31T15:52:44.216Z,32.42
2022-07-31T15:55:11.718Z,32.38
2022-07-31T15:57:39.181Z,32.36
2022-07-31T16:00:13.315Z,32.17
2022-07-31T16:02:42.706Z,32.06
2022-07-31T16:05:21.526Z,32.03
2022-07-31T16:08:30.838Z,32.04
2022-07-31T16:10:45.130Z,32.11
2022-07-31T16:13:11.923Z,31.98
2022-07-31T16:15:38.797Z,31.87
2022-07-31T16:18:05.910Z,31.82
2022-07-31T16:20:32.962Z,31.73
2022-07-31T16:23:01.740Z,31.65
2022-07-31T16:25:31.990Z,31.60
2022-07-31T16:28:06.083Z,31.69
2022-07-31T16:30:33.161Z,31.87
2022-07-31T16:33:00.787Z,31.87
2022-07-31T16:35:27.860Z,31.74
2022-07-31T16:37:55.288Z,31.55
2022-07-31T16:40:31.013Z,31.45
2022-07-31T16:43:51.095Z,31.42
2022-07-31T16:45:55.731Z,31.46
2022-07-31T16:48:23.622Z,31.43
2022-07-31T16:50:54.048Z,31.45
2022-07-31T16:54:13.070Z,31.47
2022-07-31T16:56:42.282Z,31.45
2022-07-31T16:59:09.878Z,31.47
2022-07-31T17:01:56.943Z,31.44
2022-07-31T17:04:25.090Z,31.36
2022-07-31T17:06:52.130Z,31.24
2022-07-31T17:09:20.172Z,31.04
2022-07-31T17:11:56.039Z,31.03
2022-07-31T17:14:26.452Z,30.98
2022-07-31T17:16:55.295Z,30.93
2022-07-31T17:19:35.885Z,30.87
2022-07-31T17:22:04.674Z,30.84
2022-07-31T17:24:31.819Z,30.84
2022-07-31T17:26:59.689Z,30.78
2022-07-31T17:29:27.572Z,30.73
2022-07-31T17:31:54.457Z,30.67
2022-07-31T17:34:21.358Z,30.58
2022-07-31T17:36:50.290Z,30.56
2022-07-31T17:39:17.604Z,30.48
2022-07-31T17:41:44.978Z,30.43
2022-07-31T17:44:12.119Z,30.43
2022-07-31T17:46:43.889Z,30.42
2022-07-31T17:49:20.470Z,30.41
2022-07-31T17:51:58.665Z,30.40
2022-07-31T17:54:31.766Z,30.39
2022-07-31T17:57:05.028Z,30.37
2022-07-31T17:59:33.035Z,30.36
2022-07-31T18:02:00.693Z,30.26
2022-07-31T18:04:31.330Z,30.18
2022-07-31T18:07:00.394Z,30.16
2022-07-31T18:09:28.676Z,30.08
2022-07-31T18:11:57.310Z,30.03
2022-07-31T18:14:25.218Z,29.99
2022-07-31T18:16:53.580Z,29.90
2022-07-31T18:19:23.929Z,29.90
2022-07-31T18:21:52.358Z,29.86
2022-07-31T18:24:21.075Z,29.82
2022-07-31T18:26:49.418Z,29.78
2022-07-31T18:29:18.030Z,29.75
2022-07-31T18:31:45.600Z,29.62
2022-07-31T18:34:13.377Z,29.60
2022-07-31T18:36:41.028Z,29.54
2022-07-31T18:39:08.460Z,29.50
2022-07-31T18:41:35.481Z,29.46
2022-07-31T18:44:02.358Z,29.43
2022-07-31T18:46:32.049Z,29.37
2022-07-31T18:49:00.427Z,29.33
2022-07-31T18:51:29.459Z,29.28
2022-07-31T18:53:56.843Z,29.15
2022-07-31T18:56:25.215Z,29.09
2022-07-31T18:58:54.453Z,29.03
2022-07-31T19:01:22.626Z,29.00
2022-07-31T19:03:50.358Z,28.99
2022-07-31T19:06:18.373Z,28.92
2022-07-31T19:08:46.464Z,28.89
2022-07-31T19:11:13.652Z,28.82
2022-07-31T19:13:40.716Z,28.77
2022-07-31T19:16:10.168Z,28.64
2022-07-31T19:18:40.180Z,28.59
2022-07-31T19:21:22.687Z,28.56
2022-07-31T19:23:55.782Z,28.49
2022-07-31T19:26:22.835Z,28.31
2022-07-31T19:28:49.814Z,28.16
2022-07-31T19:31:16.908Z,28.06
2022-07-31T19:33:43.936Z,27.94
2022-07-31T19:36:13.420Z,27.86
2022-07-31T19:38:44.040Z,27.75
2022-07-31T19:41:12.475Z,27.71
2022-07-31T19:43:39.377Z,27.69
2022-07-31T19:46:11.477Z,27.53
2022-07-31T19:48:46.273Z,27.37
2022-07-31T19:51:15.891Z,27.25
2022-07-31T19:53:44.615Z,27.15
2022-07-31T19:56:19.712Z,27.12
2022-07-31T19:58:48.751Z,27.04
2022-07-31T20:01:19.102Z,26.90
2022-07-31T20:03:46.692Z,26.77
2022-07-31T20:06:13.880Z,26.65
2022-07-31T20:08:42.561Z,26.59
2022-07-31T20:11:10.462Z,26.55
2022-07-31T20:13:38.604Z,26.44
2022-07-31T20:16:07.648Z,26.30
2022-07-31T20:18:34.780Z,26.19
2022-07-31T20:21:08.596Z,26.15
2022-07-31T20:23:41.728Z,26.12
2022-07-31T20:26:12.481Z,26.08
2022-07-31T20:28:43.994Z,26.05
2022-07-31T20:31:15.777Z,25.99
2022-07-31T20:33:56.525Z,25.95
2022-07-31T20:36:24.381Z,25.88
2022-07-31T20:38:51.408Z,25.84
2022-07-31T20:41:18.753Z,25.71
2022-07-31T20:43:46.895Z,25.61
2022-07-31T20:46:16.850Z,25.51
2022-07-31T20:48:45.272Z,25.50
2022-07-31T20:51:20.427Z,25.55
2022-07-31T20:53:49.315Z,25.55
2022-07-31T20:56:17.446Z,25.53
2022-07-31T20:58:51.383Z,25.47
2022-07-31T21:01:23.344Z,25.39
2022-07-31T21:03:51.537Z,25.34
2022-07-31T21:06:20.902Z,25.25
2022-07-31T21:08:49.196Z,25.13
2022-07-31T21:11:16.390Z,25.04
2022-07-31T21:13:45.858Z,25.00
2022-07-31T21:16:13.068Z,24.93
2022-07-31T21:18:43.303Z,24.93
2022-07-31T21:21:11.390Z,24.93
2022-07-31T21:23:40.035Z,24.92
2022-07-31T21:26:11.696Z,24.89
2022-07-31T21:28:39.833Z,24.91
2022-07-31T21:31:07.956Z,24.89
2022-07-31T21:33:36.995Z,24.71
2022-07-31T21:36:06.104Z,24.61
2022-07-31T21:38:35.450Z,24.63
2022-07-31T21:41:03.148Z,24.62
2022-07-31T21:43:35.269Z,24.64
2022-07-31T21:46:22.479Z,24.57
2022-07-31T21:48:52.493Z,24.55
2022-07-31T21:51:20.265Z,24.47
2022-07-31T21:53:48.072Z,24.36
2022-07-31T21:56:16.136Z,24.30
2022-07-31T21:58:44.632Z,24.21
2022-07-31T22:01:13.709Z,24.09
2022-07-31T22:03:43.892Z,24.14
2022-07-31T22:06:29.339Z,24.16
2022-07-31T22:08:56.334Z,24.16
2022-07-31T22:11:23.733Z,24.21
2022-07-31T22:13:50.678Z,24.09
2022-07-31T22:16:17.566Z,24.02
2022-07-31T22:18:44.783Z,23.90
2022-07-31T22:21:12.082Z,23.91
2022-07-31T22:23:39.368Z,23.89
2022-07-31T22:26:06.605Z,23.83
2022-07-31T22:28:34.445Z,23.73
2022-07-31T22:31:02.045Z,23.73
2022-07-31T22:33:28.986Z,23.74
2022-07-31T22:36:02.517Z,23.73
2022-07-31T22:38:31.431Z,23.54
2022-07-31T22:41:02.260Z,23.46
2022-07-31T22:44:12.551Z,23.52
2022-07-31T22:46:17.938Z,23.60
2022-07-31T22:48:46.275Z,23.61
2022-07-31T22:51:14.665Z,23.61
2022-07-31T22:53:48.683Z,23.58
2022-07-31T22:56:16.871Z,23.50
2022-07-31T22:58:44.865Z,23.38
2022-07-31T23:01:11.740Z,23.31
2022-07-31T23:03:38.615Z,23.32
2022-07-31T23:06:31.249Z,23.33
2022-07-31T23:08:55.009Z,23.33
2022-07-31T23:11:23.467Z,23.30
2022-07-31T23:13:51.733Z,23.27
2022-07-31T23:16:20.143Z,23.19
2022-07-31T23:18:47.439Z,23.14
2022-07-31T23:21:14.310Z,22.99
2022-07-31T23:23:41.226Z,23.04
2022-07-31T23:26:21.111Z,22.97
2022-07-31T23:28:48.993Z,22.87
2022-07-31T23:31:17.403Z,22.76
2022-07-31T23:33:45.763Z,22.87
2022-07-31T23:36:14.146Z,22.91
2022-07-31T23:38:42.100Z,22.87
2022-07-31T23:41:09.407Z,22.80
2022-07-31T23:43:36.610Z,22.60
2022-07-31T23:46:05.066Z,22.50
2022-07-31T23:48:34.243Z,22.45
2022-07-31T23:51:01.138Z,22.44
2022-07-31T23:53:27.985Z,22.34
2022-07-31T23:55:54.872Z,22.30
2022-07-31T23:58:21.706Z,22.39
